sensor_id;sensor_type;location;lat;lon;timestamp;P1;durP1;ratioP1;P2;durP2;ratioP2
10246;SDS011;5168;47.854;7.944;2024-01-10T00:01:33;20.63;;;13.03;;
10246;SDS011;5168;47.854;7.944;2024-01-10T00:03:59;18.50;;;12.60;;
10246;SDS011;5168;47.854;7.944;2024-01-10T00:06:25;21.07;;;12.90;;
10246;SDS011;5168;47.854;7.944;2024-01-10T00:08:51;18.83;;;10.83;;
10246;SDS011;5168;47.854;7.944;2024-01-10T00:11:17;18.07;;;11.87;;
10246;SDS011;5168;47.854;7.944;2024-01-10T00:13:43;17.43;;;11.97;;
10246;SDS011;5168;47.854;7.944;2024-01-10T00:16:11;16.63;;;10.93;;
10246;SDS011;5168;47.854;7.944;2024-01-10T00:18:38;16.47;;;11.57;;
10246;SDS011;5168;47.854;7.944;2024-01-10T00:21:05;22.70;;;13.53;;
10246;SDS011;5168;47.854;7.944;2024-01-10T00:23:31;18.43;;;12.40;;
10246;SDS011;5168;47.854;7.944;2024-01-10T00:25:57;18.53;;;11.80;;
10246;SDS011;5168;47.854;7.944;2024-01-10T00:28:23;17.33;;;11.40;;
10246;SDS011;5168;47.854;7.944;2024-01-10T00:30:49;16.57;;;10.40;;
10246;SDS011;5168;47.854;7.944;2024-01-10T00:33:15;15.90;;;10.97;;
10246;SDS011;5168;47.854;7.944;2024-01-10T00:35:41;12.63;;;9.17;;
10246;SDS011;5168;47.854;7.944;2024-01-10T00:38:06;12.90;;;8.60;;
10246;SDS011;5168;47.854;7.944;2024-01-10T00:40:32;14.47;;;9.27;;
10246;SDS011;5168;47.854;7.944;2024-01-10T00:42:58;17.80;;;11.20;;
10246;SDS011;5168;47.854;7.944;2024-01-10T00:45:24;28.07;;;13.33;;
10246;SDS011;5168;47.854;7.944;2024-01-10T00:47:50;20.03;;;13.03;;
10246;SDS011;5168;47.854;7.944;2024-01-10T00:50:16;14.57;;;9.17;;
10246;SDS011;5168;47.854;7.944;2024-01-10T00:52:46;10.13;;;7.90;;
10246;SDS011;5168;47.854;7.944;2024-01-10T00:55:11;10.03;;;7.47;;
10246;SDS011;5168;47.854;7.944;2024-01-10T00:57:37;12.47;;;8.17;;
10246;SDS011;5168;47.854;7.944;2024-01-10T01:00:04;12.30;;;8.23;;
10246;SDS011;5168;47.854;7.944;2024-01-10T01:02:31;11.73;;;7.97;;
10246;SDS011;5168;47.854;7.944;2024-01-10T01:04:57;11.60;;;7.20;;
10246;SDS011;5168;47.854;7.944;2024-01-10T01:07:22;21.17;;;12.40;;
10246;SDS011;5168;47.854;7.944;2024-01-10T01:09:48;22.23;;;13.10;;
10246;SDS011;5168;47.854;7.944;2024-01-10T01:12:14;20.77;;;12.27;;
10246;SDS011;5168;47.854;7.944;2024-01-10T01:14:40;20.57;;;11.23;;
10246;SDS011;5168;47.854;7.944;2024-01-10T01:17:06;15.30;;;9.10;;
10246;SDS011;5168;47.854;7.944;2024-01-10T01:19:32;13.53;;;7.93;;
10246;SDS011;5168;47.854;7.944;2024-01-10T01:21:58;13.07;;;8.50;;
10246;SDS011;5168;47.854;7.944;2024-01-10T01:24:24;10.77;;;7.33;;
10246;SDS011;5168;47.854;7.944;2024-01-10T01:26:50;9.37;;;6.60;;
10246;SDS011;5168;47.854;7.944;2024-01-10T01:29:17;8.67;;;6.47;;
10246;SDS011;5168;47.854;7.944;2024-01-10T01:31:43;8.10;;;5.40;;
10246;SDS011;5168;47.854;7.944;2024-01-10T01:34:09;6.97;;;5.13;;
10246;SDS011;5168;47.854;7.944;2024-01-10T01:36:34;5.67;;;4.70;;
10246;SDS011;5168;47.854;7.944;2024-01-10T01:39:00;5.00;;;4.53;;
10246;SDS011;5168;47.854;7.944;2024-01-10T01:41:27;5.67;;;4.50;;
10246;SDS011;5168;47.854;7.944;2024-01-10T01:43:53;4.50;;;3.83;;
10246;SDS011;5168;47.854;7.944;2024-01-10T01:46:19;3.77;;;3.37;;
10246;SDS011;5168;47.854;7.944;2024-01-10T01:48:45;3.93;;;3.53;;
10246;SDS011;5168;47.854;7.944;2024-01-10T01:51:11;4.10;;;3.70;;
10246;SDS011;5168;47.854;7.944;2024-01-10T01:53:38;3.73;;;3.30;;
10246;SDS011;5168;47.854;7.944;2024-01-10T01:56:08;3.27;;;2.97;;
10246;SDS011;5168;47.854;7.944;2024-01-10T01:58:34;3.33;;;3.03;;
10246;SDS011;5168;47.854;7.944;2024-01-10T02:01:02;3.40;;;3.10;;
10246;SDS011;5168;47.854;7.944;2024-01-10T02:03:29;3.60;;;3.30;;
10246;SDS011;5168;47.854;7.944;2024-01-10T02:05:56;3.77;;;3.20;;
10246;SDS011;5168;47.854;7.944;2024-01-10T02:08:22;3.13;;;2.93;;
10246;SDS011;5168;47.854;7.944;2024-01-10T02:10:48;3.10;;;2.90;;
10246;SDS011;5168;47.854;7.944;2024-01-10T02:13:14;2.70;;;2.50;;
10246;SDS011;5168;47.854;7.944;2024-01-10T02:15:40;2.80;;;2.60;;
10246;SDS011;5168;47.854;7.944;2024-01-10T02:18:06;2.70;;;2.50;;
10246;SDS011;5168;47.854;7.944;2024-01-10T02:20:32;2.73;;;2.53;;
10246;SDS011;5168;47.854;7.944;2024-01-10T02:23:02;3.47;;;2.80;;
10246;SDS011;5168;47.854;7.944;2024-01-10T02:25:27;2.70;;;2.50;;
10246;SDS011;5168;47.854;7.944;2024-01-10T02:27:53;2.63;;;2.43;;
10246;SDS011;5168;47.854;7.944;2024-01-10T02:30:19;2.53;;;2.33;;
10246;SDS011;5168;47.854;7.944;2024-01-10T02:32:45;2.50;;;2.30;;
10246;SDS011;5168;47.854;7.944;2024-01-10T02:35:11;2.60;;;2.40;;
10246;SDS011;5168;47.854;7.944;2024-01-10T02:37:37;2.60;;;2.40;;
10246;SDS011;5168;47.854;7.944;2024-01-10T02:40:03;2.80;;;2.60;;
10246;SDS011;5168;47.854;7.944;2024-01-10T02:42:32;3.37;;;3.07;;
10246;SDS011;5168;47.854;7.944;2024-01-10T02:44:57;4.20;;;3.77;;
10246;SDS011;5168;47.854;7.944;2024-01-10T02:47:23;4.27;;;3.87;;
10246;SDS011;5168;47.854;7.944;2024-01-10T02:49:49;4.27;;;3.57;;
10246;SDS011;5168;47.854;7.944;2024-01-10T02:52:15;4.83;;;3.77;;
10246;SDS011;5168;47.854;7.944;2024-01-10T02:54:40;4.00;;;3.50;;
10246;SDS011;5168;47.854;7.944;2024-01-10T02:57:06;4.20;;;3.30;;
10246;SDS011;5168;47.854;7.944;2024-01-10T02:59:32;5.63;;;4.30;;
10246;SDS011;5168;47.854;7.944;2024-01-10T03:01:58;4.40;;;3.93;;
10246;SDS011;5168;47.854;7.944;2024-01-10T03:04:24;4.83;;;3.83;;
10246;SDS011;5168;47.854;7.944;2024-01-10T03:06:49;4.17;;;3.77;;
10246;SDS011;5168;47.854;7.944;2024-01-10T03:09:15;4.43;;;3.50;;
10246;SDS011;5168;47.854;7.944;2024-01-10T03:11:41;4.13;;;3.73;;
10246;SDS011;5168;47.854;7.944;2024-01-10T03:14:07;6.67;;;4.80;;
10246;SDS011;5168;47.854;7.944;2024-01-10T03:16:34;8.27;;;6.10;;
10246;SDS011;5168;47.854;7.944;2024-01-10T03:18:59;8.27;;;6.20;;
10246;SDS011;5168;47.854;7.944;2024-01-10T03:21:25;7.87;;;5.27;;
10246;SDS011;5168;47.854;7.944;2024-01-10T03:23:52;4.83;;;4.33;;
10246;SDS011;5168;47.854;7.944;2024-01-10T03:26:21;6.07;;;3.90;;
10246;SDS011;5168;47.854;7.944;2024-01-10T03:28:47;3.97;;;3.50;;
10246;SDS011;5168;47.854;7.944;2024-01-10T03:31:13;4.17;;;3.77;;
10246;SDS011;5168;47.854;7.944;2024-01-10T03:33:39;4.00;;;3.60;;
10246;SDS011;5168;47.854;7.944;2024-01-10T03:36:06;4.87;;;3.97;;
10246;SDS011;5168;47.854;7.944;2024-01-10T03:38:34;5.47;;;4.67;;
10246;SDS011;5168;47.854;7.944;2024-01-10T03:40:59;8.80;;;5.57;;
10246;SDS011;5168;47.854;7.944;2024-01-10T03:43:25;6.53;;;4.63;;
10246;SDS011;5168;47.854;7.944;2024-01-10T03:45:50;5.73;;;4.60;;
10246;SDS011;5168;47.854;7.944;2024-01-10T03:48:16;6.07;;;4.50;;
10246;SDS011;5168;47.854;7.944;2024-01-10T03:50:42;4.40;;;3.77;;
10246;SDS011;5168;47.854;7.944;2024-01-10T03:53:08;6.13;;;4.20;;
10246;SDS011;5168;47.854;7.944;2024-01-10T03:55:33;5.03;;;3.90;;
10246;SDS011;5168;47.854;7.944;2024-01-10T03:57:59;4.13;;;3.77;;
10246;SDS011;5168;47.854;7.944;2024-01-10T04:00:25;3.70;;;3.40;;
10246;SDS011;5168;47.854;7.944;2024-01-10T04:02:50;3.47;;;3.17;;
10246;SDS011;5168;47.854;7.944;2024-01-10T04:05:16;3.40;;;3.10;;
10246;SDS011;5168;47.854;7.944;2024-01-10T04:07:42;3.60;;;3.30;;
10246;SDS011;5168;47.854;7.944;2024-01-10T04:10:11;3.47;;;3.17;;
10246;SDS011;5168;47.854;7.944;2024-01-10T04:12:48;3.27;;;3.00;;
10246;SDS011;5168;47.854;7.944;2024-01-10T04:15:14;3.17;;;2.93;;
10246;SDS011;5168;47.854;7.944;2024-01-10T04:17:40;3.20;;;3.00;;
10246;SDS011;5168;47.854;7.944;2024-01-10T04:20:06;3.27;;;2.97;;
10246;SDS011;5168;47.854;7.944;2024-01-10T04:22:32;3.50;;;3.20;;
10246;SDS011;5168;47.854;7.944;2024-01-10T04:24:58;2.90;;;2.70;;
10246;SDS011;5168;47.854;7.944;2024-01-10T04:27:25;3.77;;;3.40;;
10246;SDS011;5168;47.854;7.944;2024-01-10T04:29:51;5.17;;;4.63;;
10246;SDS011;5168;47.854;7.944;2024-01-10T04:32:17;5.40;;;4.90;;
10246;SDS011;5168;47.854;7.944;2024-01-10T04:34:43;4.53;;;4.10;;
10246;SDS011;5168;47.854;7.944;2024-01-10T04:37:09;4.80;;;4.40;;
10246;SDS011;5168;47.854;7.944;2024-01-10T04:39:35;6.50;;;4.97;;
10246;SDS011;5168;47.854;7.944;2024-01-10T04:42:02;4.53;;;4.13;;
10246;SDS011;5168;47.854;7.944;2024-01-10T04:44:29;4.10;;;3.70;;
10246;SDS011;5168;47.854;7.944;2024-01-10T04:46:54;4.13;;;3.73;;
10246;SDS011;5168;47.854;7.944;2024-01-10T04:49:20;3.60;;;3.30;;
10246;SDS011;5168;47.854;7.944;2024-01-10T04:51:46;3.77;;;3.47;;
10246;SDS011;5168;47.854;7.944;2024-01-10T04:54:13;3.47;;;3.17;;
10246;SDS011;5168;47.854;7.944;2024-01-10T04:56:39;3.80;;;3.40;;
10246;SDS011;5168;47.854;7.944;2024-01-10T04:59:05;5.07;;;4.03;;
10246;SDS011;5168;47.854;7.944;2024-01-10T05:01:31;3.97;;;3.20;;
10246;SDS011;5168;47.854;7.944;2024-01-10T05:03:57;4.57;;;3.00;;
10246;SDS011;5168;47.854;7.944;2024-01-10T05:06:23;2.57;;;2.37;;
10246;SDS011;5168;47.854;7.944;2024-01-10T05:08:49;3.23;;;2.93;;
10246;SDS011;5168;47.854;7.944;2024-01-10T05:11:15;3.30;;;3.00;;
10246;SDS011;5168;47.854;7.944;2024-01-10T05:13:42;3.37;;;2.47;;
10246;SDS011;5168;47.854;7.944;2024-01-10T05:16:08;2.60;;;2.40;;
10246;SDS011;5168;47.854;7.944;2024-01-10T05:18:34;2.50;;;2.30;;
10246;SDS011;5168;47.854;7.944;2024-01-10T05:21:00;2.53;;;2.33;;
10246;SDS011;5168;47.854;7.944;2024-01-10T05:23:26;2.33;;;2.13;;
10246;SDS011;5168;47.854;7.944;2024-01-10T05:25:53;2.20;;;2.10;;
10246;SDS011;5168;47.854;7.944;2024-01-10T05:28:18;2.20;;;2.10;;
10246;SDS011;5168;47.854;7.944;2024-01-10T05:30:44;2.33;;;2.20;;
10246;SDS011;5168;47.854;7.944;2024-01-10T05:33:10;2.37;;;2.20;;
10246;SDS011;5168;47.854;7.944;2024-01-10T05:35:36;2.87;;;2.50;;
10246;SDS011;5168;47.854;7.944;2024-01-10T05:38:03;2.23;;;2.03;;
10246;SDS011;5168;47.854;7.944;2024-01-10T05:40:29;2.13;;;2.03;;
10246;SDS011;5168;47.854;7.944;2024-01-10T05:42:55;2.57;;;2.37;;
10246;SDS011;5168;47.854;7.944;2024-01-10T05:45:21;2.63;;;2.43;;
10246;SDS011;5168;47.854;7.944;2024-01-10T05:47:47;2.30;;;2.20;;
10246;SDS011;5168;47.854;7.944;2024-01-10T05:50:13;2.13;;;2.03;;
10246;SDS011;5168;47.854;7.944;2024-01-10T05:52:39;5.17;;;3.10;;
10246;SDS011;5168;47.854;7.944;2024-01-10T05:55:05;3.33;;;2.90;;
10246;SDS011;5168;47.854;7.944;2024-01-10T05:57:34;2.77;;;2.57;;
10246;SDS011;5168;47.854;7.944;2024-01-10T06:00:00;2.83;;;2.63;;
10246;SDS011;5168;47.854;7.944;2024-01-10T06:02:26;3.17;;;2.87;;
10246;SDS011;5168;47.854;7.944;2024-01-10T06:04:52;2.73;;;2.53;;
10246;SDS011;5168;47.854;7.944;2024-01-10T06:07:18;2.70;;;2.50;;
10246;SDS011;5168;47.854;7.944;2024-01-10T06:09:45;2.90;;;2.70;;
10246;SDS011;5168;47.854;7.944;2024-01-10T06:12:11;2.63;;;2.43;;
10246;SDS011;5168;47.854;7.944;2024-01-10T06:14:37;2.50;;;2.30;;
10246;SDS011;5168;47.854;7.944;2024-01-10T06:17:03;2.40;;;2.20;;
10246;SDS011;5168;47.854;7.944;2024-01-10T06:19:32;2.70;;;2.50;;
10246;SDS011;5168;47.854;7.944;2024-01-10T06:21:58;2.50;;;2.30;;
10246;SDS011;5168;47.854;7.944;2024-01-10T06:24:24;2.40;;;2.20;;
10246;SDS011;5168;47.854;7.944;2024-01-10T06:26:51;2.63;;;2.43;;
10246;SDS011;5168;47.854;7.944;2024-01-10T06:29:18;4.30;;;3.73;;
10246;SDS011;5168;47.854;7.944;2024-01-10T06:31:43;7.83;;;4.60;;
10246;SDS011;5168;47.854;7.944;2024-01-10T06:34:09;6.83;;;4.23;;
10246;SDS011;5168;47.854;7.944;2024-01-10T06:36:35;4.00;;;3.60;;
10246;SDS011;5168;47.854;7.944;2024-01-10T06:39:01;4.37;;;3.97;;
10246;SDS011;5168;47.854;7.944;2024-01-10T06:41:27;5.10;;;4.60;;
10246;SDS011;5168;47.854;7.944;2024-01-10T06:43:53;4.10;;;3.47;;
10246;SDS011;5168;47.854;7.944;2024-01-10T06:46:20;3.13;;;2.83;;
10246;SDS011;5168;47.854;7.944;2024-01-10T06:48:46;3.67;;;3.37;;
10246;SDS011;5168;47.854;7.944;2024-01-10T06:51:12;3.40;;;3.10;;
10246;SDS011;5168;47.854;7.944;2024-01-10T06:53:38;3.30;;;3.10;;
10246;SDS011;5168;47.854;7.944;2024-01-10T06:56:04;2.40;;;2.20;;
10246;SDS011;5168;47.854;7.944;2024-01-10T06:58:30;2.80;;;2.60;;
10246;SDS011;5168;47.854;7.944;2024-01-10T07:00:56;2.77;;;2.57;;
10246;SDS011;5168;47.854;7.944;2024-01-10T07:03:23;2.63;;;2.43;;
10246;SDS011;5168;47.854;7.944;2024-01-10T07:05:48;2.33;;;2.23;;
10246;SDS011;5168;47.854;7.944;2024-01-10T07:08:14;2.13;;;2.03;;
10246;SDS011;5168;47.854;7.944;2024-01-10T07:10:41;2.37;;;2.17;;
10246;SDS011;5168;47.854;7.944;2024-01-10T07:13:07;2.60;;;2.40;;
10246;SDS011;5168;47.854;7.944;2024-01-10T07:15:33;2.00;;;1.90;;
10246;SDS011;5168;47.854;7.944;2024-01-10T07:17:59;2.10;;;2.00;;
10246;SDS011;5168;47.854;7.944;2024-01-10T07:20:25;2.20;;;2.10;;
10246;SDS011;5168;47.854;7.944;2024-01-10T07:22:51;2.13;;;2.03;;
10246;SDS011;5168;47.854;7.944;2024-01-10T07:25:17;2.13;;;2.03;;
10246;SDS011;5168;47.854;7.944;2024-01-10T07:27:43;2.30;;;2.20;;
10246;SDS011;5168;47.854;7.944;2024-01-10T07:30:09;2.30;;;2.20;;
10246;SDS011;5168;47.854;7.944;2024-01-10T07:35:10;2.53;;;2.33;;
10246;SDS011;5168;47.854;7.944;2024-01-10T07:37:37;2.30;;;2.20;;
10246;SDS011;5168;47.854;7.944;2024-01-10T07:40:03;2.10;;;2.00;;
10246;SDS011;5168;47.854;7.944;2024-01-10T07:42:36;2.40;;;2.30;;
10246;SDS011;5168;47.854;7.944;2024-01-10T07:45:02;2.30;;;2.20;;
10246;SDS011;5168;47.854;7.944;2024-01-10T07:47:32;2.30;;;2.20;;
10246;SDS011;5168;47.854;7.944;2024-01-10T07:50:02;2.40;;;2.20;;
10246;SDS011;5168;47.854;7.944;2024-01-10T07:52:28;2.60;;;2.40;;
10246;SDS011;5168;47.854;7.944;2024-01-10T07:54:54;2.70;;;2.50;;
10246;SDS011;5168;47.854;7.944;2024-01-10T07:57:19;2.87;;;2.53;;
10246;SDS011;5168;47.854;7.944;2024-01-10T07:59:45;3.10;;;2.80;;
10246;SDS011;5168;47.854;7.944;2024-01-10T08:02:10;2.20;;;2.10;;
10246;SDS011;5168;47.854;7.944;2024-01-10T08:04:36;2.30;;;2.20;;
10246;SDS011;5168;47.854;7.944;2024-01-10T08:07:02;2.03;;;1.93;;
10246;SDS011;5168;47.854;7.944;2024-01-10T08:09:28;2.40;;;2.23;;
10246;SDS011;5168;47.854;7.944;2024-01-10T08:11:54;2.20;;;2.00;;
10246;SDS011;5168;47.854;7.944;2024-01-10T08:14:19;2.17;;;2.07;;
10246;SDS011;5168;47.854;7.944;2024-01-10T08:16:45;2.10;;;2.00;;
10246;SDS011;5168;47.854;7.944;2024-01-10T08:19:11;2.33;;;2.23;;
10246;SDS011;5168;47.854;7.944;2024-01-10T08:21:37;2.23;;;2.13;;
10246;SDS011;5168;47.854;7.944;2024-01-10T08:24:03;2.13;;;2.03;;
10246;SDS011;5168;47.854;7.944;2024-01-10T08:26:28;2.10;;;2.00;;
10246;SDS011;5168;47.854;7.944;2024-01-10T08:28:55;2.30;;;2.20;;
10246;SDS011;5168;47.854;7.944;2024-01-10T08:31:20;2.30;;;2.20;;
10246;SDS011;5168;47.854;7.944;2024-01-10T08:33:47;2.10;;;2.00;;
10246;SDS011;5168;47.854;7.944;2024-01-10T08:36:13;2.20;;;2.10;;
10246;SDS011;5168;47.854;7.944;2024-01-10T08:38:39;2.27;;;2.17;;
10246;SDS011;5168;47.854;7.944;2024-01-10T08:41:07;2.10;;;2.00;;
10246;SDS011;5168;47.854;7.944;2024-01-10T08:43:33;2.37;;;2.20;;
10246;SDS011;5168;47.854;7.944;2024-01-10T08:45:59;2.20;;;2.10;;
10246;SDS011;5168;47.854;7.944;2024-01-10T08:48:25;2.03;;;1.83;;
10246;SDS011;5168;47.854;7.944;2024-01-10T08:50:51;2.17;;;1.73;;
10246;SDS011;5168;47.854;7.944;2024-01-10T08:53:19;2.40;;;2.30;;
10246;SDS011;5168;47.854;7.944;2024-01-10T08:55:45;2.20;;;2.10;;
10246;SDS011;5168;47.854;7.944;2024-01-10T08:58:12;2.00;;;1.90;;
10246;SDS011;5168;47.854;7.944;2024-01-10T09:00:37;2.03;;;1.93;;
10246;SDS011;5168;47.854;7.944;2024-01-10T09:03:03;2.10;;;2.00;;
10246;SDS011;5168;47.854;7.944;2024-01-10T09:05:29;1.80;;;1.70;;
10246;SDS011;5168;47.854;7.944;2024-01-10T09:07:55;1.90;;;1.80;;
10246;SDS011;5168;47.854;7.944;2024-01-10T09:10:21;2.27;;;2.07;;
10246;SDS011;5168;47.854;7.944;2024-01-10T09:12:47;1.80;;;1.70;;
10246;SDS011;5168;47.854;7.944;2024-01-10T09:15:13;2.00;;;1.90;;
10246;SDS011;5168;47.854;7.944;2024-01-10T09:17:42;1.97;;;1.87;;
10246;SDS011;5168;47.854;7.944;2024-01-10T09:20:08;2.00;;;1.90;;
10246;SDS011;5168;47.854;7.944;2024-01-10T09:22:35;1.93;;;1.83;;
10246;SDS011;5168;47.854;7.944;2024-01-10T09:25:00;1.90;;;1.80;;
10246;SDS011;5168;47.854;7.944;2024-01-10T09:27:35;2.00;;;1.90;;
10246;SDS011;5168;47.854;7.944;2024-01-10T09:30:01;2.30;;;2.10;;
10246;SDS011;5168;47.854;7.944;2024-01-10T09:32:27;2.60;;;2.40;;
10246;SDS011;5168;47.854;7.944;2024-01-10T09:34:54;2.60;;;2.37;;
10246;SDS011;5168;47.854;7.944;2024-01-10T09:37:20;5.47;;;2.93;;
10246;SDS011;5168;47.854;7.944;2024-01-10T09:39:47;3.30;;;2.70;;
10246;SDS011;5168;47.854;7.944;2024-01-10T09:42:13;3.23;;;2.70;;
10246;SDS011;5168;47.854;7.944;2024-01-10T09:44:39;3.93;;;2.63;;
10246;SDS011;5168;47.854;7.944;2024-01-10T09:47:05;3.63;;;2.50;;
10246;SDS011;5168;47.854;7.944;2024-01-10T09:49:31;3.00;;;2.77;;
10246;SDS011;5168;47.854;7.944;2024-01-10T09:51:59;4.20;;;3.00;;
10246;SDS011;5168;47.854;7.944;2024-01-10T09:54:29;2.70;;;2.50;;
10246;SDS011;5168;47.854;7.944;2024-01-10T09:56:56;3.20;;;2.90;;
10246;SDS011;5168;47.854;7.944;2024-01-10T09:59:22;3.20;;;2.90;;
10246;SDS011;5168;47.854;7.944;2024-01-10T10:01:48;2.90;;;2.60;;
10246;SDS011;5168;47.854;7.944;2024-01-10T10:04:15;3.23;;;2.40;;
10246;SDS011;5168;47.854;7.944;2024-01-10T10:06:43;2.60;;;2.40;;
10246;SDS011;5168;47.854;7.944;2024-01-10T10:09:08;3.17;;;2.40;;
10246;SDS011;5168;47.854;7.944;2024-01-10T10:11:35;2.70;;;2.50;;
10246;SDS011;5168;47.854;7.944;2024-01-10T10:14:13;2.80;;;2.20;;
10246;SDS011;5168;47.854;7.944;2024-01-10T10:16:43;1.83;;;1.73;;
10246;SDS011;5168;47.854;7.944;2024-01-10T10:19:09;1.80;;;1.70;;
10246;SDS011;5168;47.854;7.944;2024-01-10T10:21:36;2.20;;;2.10;;
10246;SDS011;5168;47.854;7.944;2024-01-10T10:24:03;2.17;;;1.97;;
10246;SDS011;5168;47.854;7.944;2024-01-10T10:26:29;3.33;;;2.23;;
10246;SDS011;5168;47.854;7.944;2024-01-10T10:28:58;1.80;;;1.70;;
10246;SDS011;5168;47.854;7.944;2024-01-10T10:31:24;2.57;;;2.27;;
10246;SDS011;5168;47.854;7.944;2024-01-10T10:33:50;2.50;;;2.30;;
10246;SDS011;5168;47.854;7.944;2024-01-10T10:36:16;2.37;;;2.10;;
10246;SDS011;5168;47.854;7.944;2024-01-10T10:38:42;2.07;;;1.93;;
10246;SDS011;5168;47.854;7.944;2024-01-10T10:41:08;2.00;;;1.90;;
10246;SDS011;5168;47.854;7.944;2024-01-10T10:43:37;2.00;;;1.90;;
10246;SDS011;5168;47.854;7.944;2024-01-10T10:46:03;2.30;;;2.10;;
10246;SDS011;5168;47.854;7.944;2024-01-10T10:48:33;2.20;;;2.10;;
10246;SDS011;5168;47.854;7.944;2024-01-10T10:51:07;2.10;;;2.00;;
10246;SDS011;5168;47.854;7.944;2024-01-10T10:53:34;3.70;;;2.30;;
10246;SDS011;5168;47.854;7.944;2024-01-10T10:56:04;2.13;;;2.03;;
10246;SDS011;5168;47.854;7.944;2024-01-10T10:58:42;2.10;;;1.93;;
10246;SDS011;5168;47.854;7.944;2024-01-10T11:01:09;2.30;;;2.10;;
10246;SDS011;5168;47.854;7.944;2024-01-10T11:03:37;2.10;;;1.90;;
10246;SDS011;5168;47.854;7.944;2024-01-10T11:06:09;1.80;;;1.70;;
10246;SDS011;5168;47.854;7.944;2024-01-10T11:08:36;1.80;;;1.70;;
10246;SDS011;5168;47.854;7.944;2024-01-10T11:12:02;1.70;;;1.60;;
10246;SDS011;5168;47.854;7.944;2024-01-10T11:22:39;1.60;;;1.50;;
10246;SDS011;5168;47.854;7.944;2024-01-10T11:25:23;1.43;;;1.33;;
10246;SDS011;5168;47.854;7.944;2024-01-10T11:27:54;1.53;;;1.40;;
10246;SDS011;5168;47.854;7.944;2024-01-10T11:30:36;1.63;;;1.53;;
10246;SDS011;5168;47.854;7.944;2024-01-10T11:41:22;2.90;;;1.50;;
10246;SDS011;5168;47.854;7.944;2024-01-10T11:46:47;1.57;;;1.47;;
10246;SDS011;5168;47.854;7.944;2024-01-10T11:49:15;1.73;;;1.60;;
10246;SDS011;5168;47.854;7.944;2024-01-10T11:54:11;1.83;;;1.50;;
10246;SDS011;5168;47.854;7.944;2024-01-10T11:56:38;2.30;;;1.80;;
10246;SDS011;5168;47.854;7.944;2024-01-10T11:59:11;3.63;;;1.60;;
10246;SDS011;5168;47.854;7.944;2024-01-10T12:01:38;1.67;;;1.57;;
10246;SDS011;5168;47.854;7.944;2024-01-10T12:04:05;2.23;;;1.57;;
10246;SDS011;5168;47.854;7.944;2024-01-10T12:06:31;2.27;;;1.90;;
10246;SDS011;5168;47.854;7.944;2024-01-10T12:08:59;1.97;;;1.87;;
10246;SDS011;5168;47.854;7.944;2024-01-10T12:11:28;1.77;;;1.67;;
10246;SDS011;5168;47.854;7.944;2024-01-10T12:13:54;2.60;;;1.73;;
10246;SDS011;5168;47.854;7.944;2024-01-10T12:16:19;1.73;;;1.63;;
10246;SDS011;5168;47.854;7.944;2024-01-10T12:18:48;1.77;;;1.67;;
10246;SDS011;5168;47.854;7.944;2024-01-10T12:21:16;2.20;;;2.00;;
10246;SDS011;5168;47.854;7.944;2024-01-10T12:23:42;2.63;;;2.03;;
10246;SDS011;5168;47.854;7.944;2024-01-10T12:26:09;1.98;;;1.77;;
10246;SDS011;5168;47.854;7.944;2024-01-10T12:28:38;2.17;;;1.80;;
10246;SDS011;5168;47.854;7.944;2024-01-10T12:31:04;2.22;;;2.05;;
10246;SDS011;5168;47.854;7.944;2024-01-10T12:33:32;2.00;;;1.90;;
10246;SDS011;5168;47.854;7.944;2024-01-10T12:36:01;2.20;;;2.00;;
10246;SDS011;5168;47.854;7.944;2024-01-10T12:38:40;3.27;;;2.97;;
10246;SDS011;5168;47.854;7.944;2024-01-10T12:41:05;8.68;;;6.47;;
10246;SDS011;5168;47.854;7.944;2024-01-10T12:43:33;13.48;;;9.35;;
10246;SDS011;5168;47.854;7.944;2024-01-10T12:46:06;10.70;;;7.13;;
10246;SDS011;5168;47.854;7.944;2024-01-10T12:48:32;9.13;;;7.13;;
10246;SDS011;5168;47.854;7.944;2024-01-10T12:51:02;6.13;;;5.07;;
10246;SDS011;5168;47.854;7.944;2024-01-10T12:53:35;3.73;;;2.80;;
10246;SDS011;5168;47.854;7.944;2024-01-10T12:56:05;3.50;;;2.63;;
10246;SDS011;5168;47.854;7.944;2024-01-10T12:58:32;2.77;;;2.13;;
10246;SDS011;5168;47.854;7.944;2024-01-10T13:00:58;3.10;;;2.30;;
10246;SDS011;5168;47.854;7.944;2024-01-10T13:03:24;2.40;;;1.90;;
10246;SDS011;5168;47.854;7.944;2024-01-10T13:05:50;2.20;;;2.00;;
10246;SDS011;5168;47.854;7.944;2024-01-10T13:08:16;2.40;;;2.20;;
10246;SDS011;5168;47.854;7.944;2024-01-10T13:10:43;2.35;;;2.15;;
10246;SDS011;5168;47.854;7.944;2024-01-10T13:13:10;2.05;;;1.73;;
10246;SDS011;5168;47.854;7.944;2024-01-10T13:15:36;2.93;;;1.90;;
10246;SDS011;5168;47.854;7.944;2024-01-10T13:18:02;2.00;;;1.80;;
10246;SDS011;5168;47.854;7.944;2024-01-10T13:20:28;2.20;;;2.00;;
10246;SDS011;5168;47.854;7.944;2024-01-10T13:22:54;1.87;;;1.77;;
10246;SDS011;5168;47.854;7.944;2024-01-10T13:25:20;2.33;;;1.90;;
10246;SDS011;5168;47.854;7.944;2024-01-10T13:27:49;4.40;;;3.27;;
10246;SDS011;5168;47.854;7.944;2024-01-10T13:30:15;2.63;;;2.30;;
10246;SDS011;5168;47.854;7.944;2024-01-10T13:32:42;2.10;;;1.90;;
10246;SDS011;5168;47.854;7.944;2024-01-10T13:35:08;2.20;;;1.90;;
10246;SDS011;5168;47.854;7.944;2024-01-10T13:37:34;2.07;;;1.97;;
10246;SDS011;5168;47.854;7.944;2024-01-10T13:40:00;2.33;;;2.10;;
10246;SDS011;5168;47.854;7.944;2024-01-10T13:42:26;2.17;;;2.00;;
10246;SDS011;5168;47.854;7.944;2024-01-10T13:44:52;4.07;;;2.47;;
10246;SDS011;5168;47.854;7.944;2024-01-10T13:47:18;2.53;;;2.33;;
10246;SDS011;5168;47.854;7.944;2024-01-10T13:49:43;3.03;;;2.60;;
10246;SDS011;5168;47.854;7.944;2024-01-10T13:52:09;2.70;;;2.50;;
10246;SDS011;5168;47.854;7.944;2024-01-10T13:54:34;2.90;;;2.60;;
10246;SDS011;5168;47.854;7.944;2024-01-10T13:57:01;6.23;;;3.43;;
10246;SDS011;5168;47.854;7.944;2024-01-10T13:59:28;4.47;;;3.60;;
10246;SDS011;5168;47.854;7.944;2024-01-10T14:01:54;4.07;;;3.53;;
10246;SDS011;5168;47.854;7.944;2024-01-10T14:04:20;3.73;;;3.00;;
10246;SDS011;5168;47.854;7.944;2024-01-10T14:06:47;2.93;;;2.73;;
10246;SDS011;5168;47.854;7.944;2024-01-10T14:09:13;2.73;;;2.53;;
10246;SDS011;5168;47.854;7.944;2024-01-10T14:11:38;3.47;;;3.10;;
10246;SDS011;5168;47.854;7.944;2024-01-10T14:14:04;3.00;;;2.80;;
10246;SDS011;5168;47.854;7.944;2024-01-10T14:16:30;2.97;;;2.77;;
10246;SDS011;5168;47.854;7.944;2024-01-10T14:18:56;3.13;;;2.83;;
10246;SDS011;5168;47.854;7.944;2024-01-10T14:21:22;3.50;;;3.20;;
10246;SDS011;5168;47.854;7.944;2024-01-10T14:23:47;3.17;;;2.90;;
10246;SDS011;5168;47.854;7.944;2024-01-10T14:26:16;3.33;;;3.03;;
10246;SDS011;5168;47.854;7.944;2024-01-10T14:28:41;3.27;;;2.97;;
10246;SDS011;5168;47.854;7.944;2024-01-10T14:31:07;3.00;;;2.70;;
10246;SDS011;5168;47.854;7.944;2024-01-10T14:33:35;3.50;;;3.20;;
10246;SDS011;5168;47.854;7.944;2024-01-10T14:36:00;3.20;;;2.90;;
10246;SDS011;5168;47.854;7.944;2024-01-10T14:38:29;2.90;;;2.70;;
10246;SDS011;5168;47.854;7.944;2024-01-10T14:40:55;4.40;;;2.50;;
10246;SDS011;5168;47.854;7.944;2024-01-10T14:43:21;2.80;;;2.57;;
10246;SDS011;5168;47.854;7.944;2024-01-10T14:45:46;3.03;;;2.60;;
10246;SDS011;5168;47.854;7.944;2024-01-10T14:48:13;2.47;;;2.27;;
10246;SDS011;5168;47.854;7.944;2024-01-10T14:50:39;2.77;;;2.57;;
10246;SDS011;5168;47.854;7.944;2024-01-10T14:53:05;2.30;;;2.10;;
10246;SDS011;5168;47.854;7.944;2024-01-10T14:55:30;2.10;;;2.00;;
10246;SDS011;5168;47.854;7.944;2024-01-10T14:57:56;1.93;;;1.83;;
10246;SDS011;5168;47.854;7.944;2024-01-10T15:00:22;1.73;;;1.63;;
10246;SDS011;5168;47.854;7.944;2024-01-10T15:02:48;1.83;;;1.73;;
10246;SDS011;5168;47.854;7.944;2024-01-10T15:05:14;1.80;;;1.70;;
10246;SDS011;5168;47.854;7.944;2024-01-10T15:07:40;1.70;;;1.60;;
10246;SDS011;5168;47.854;7.944;2024-01-10T15:10:06;1.83;;;1.73;;
10246;SDS011;5168;47.854;7.944;2024-01-10T15:12:32;1.97;;;1.87;;
10246;SDS011;5168;47.854;7.944;2024-01-10T15:14:58;2.00;;;1.90;;
10246;SDS011;5168;47.854;7.944;2024-01-10T15:17:25;2.00;;;1.90;;
10246;SDS011;5168;47.854;7.944;2024-01-10T15:19:51;2.00;;;1.90;;
10246;SDS011;5168;47.854;7.944;2024-01-10T15:22:17;2.17;;;2.07;;